sensor_id;sensor_type;location;lat;lon;timestamp;pressure;altitude;pressure_sealevel;temperature;humidity
29315;BME280;16320;53.954;9.506;2022-12-16T00:01:10;100839.03;;;-0.59;100.00
29315;BME280;16320;53.954;9.506;2022-12-16T00:04:15;100832.19;;;-0.66;100.00
29315;BME280;16320;53.954;9.506;2022-12-16T00:07:21;100841.66;;;-0.66;100.00
29315;BME280;16320;53.954;9.506;2022-12-16T00:10:25;100840.84;;;-0.73;100.00
29315;BME280;16320;53.954;9.506;2022-12-16T00:13:32;100834.81;;;-0.75;100.00
29315;BME280;16320;53.954;9.506;2022-12-16T00:16:37;100839.94;;;-0.72;100.00
29315;BME280;16320;53.954;9.506;2022-12-16T00:19:41;100851.09;;;-0.64;100.00
29315;BME280;16320;53.954;9.506;2022-12-16T00:22:45;100863.13;;;-0.60;100.00
29315;BME280;16320;53.954;9.506;2022-12-16T00:25:50;100867.47;;;-0.63;100.00
29315;BME280;16320;53.954;9.506;2022-12-16T00:28:55;100861.41;;;-0.64;100.00
29315;BME280;16320;53.954;9.506;2022-12-16T00:31:59;100866.59;;;-0.67;100.00
29315;BME280;16320;53.954;9.506;2022-12-16T00:35:06;100863.16;;;-0.66;100.00
29315;BME280;16320;53.954;9.506;2022-12-16T00:38:11;100861.44;;;-0.68;100.00
29315;BME280;16320;53.954;9.506;2022-12-16T00:41:15;100861.41;;;-0.61;100.00
29315;BME280;16320;53.954;9.506;2022-12-16T00:44:20;100875.19;;;-0.62;100.00
29315;BME280;16320;53.954;9.506;2022-12-16T00:47:24;100859.72;;;-0.65;100.00
29315;BME280;16320;53.954;9.506;2022-12-16T00:50:29;100869.16;;;-0.67;100.00
29315;BME280;16320;53.954;9.506;2022-12-16T00:53:34;100864.88;;;-0.68;100.00
29315;BME280;16320;53.954;9.506;2022-12-16T00:56:39;100862.31;;;-0.65;100.00
29315;BME280;16320;53.954;9.506;2022-12-16T00:59:44;100871.75;;;-0.64;100.00
29315;BME280;16320;53.954;9.506;2022-12-16T01:02:50;100875.19;;;-0.62;100.00
29315;BME280;16320;53.954;9.506;2022-12-16T01:05:57;100875.19;;;-0.62;100.00
29315;BME280;16320;53.954;9.506;2022-12-16T01:09:02;100877.78;;;-0.62;100.00
29315;BME280;16320;53.954;9.506;2022-12-16T01:12:07;100878.63;;;-0.63;100.00
29315;BME280;16320;53.954;9.506;2022-12-16T01:15:11;100879.47;;;-0.62;100.00
29315;BME280;16320;53.954;9.506;2022-12-16T01:18:16;100885.50;;;-0.62;100.00
29315;BME280;16320;53.954;9.506;2022-12-16T01:21:21;100882.13;;;-0.76;100.00
29315;BME280;16320;53.954;9.506;2022-12-16T01:24:25;100899.28;;;-0.72;100.00
29315;BME280;16320;53.954;9.506;2022-12-16T01:27:30;100903.59;;;-0.74;100.00
29315;BME280;16320;53.954;9.506;2022-12-16T01:30:35;100900.16;;;-0.79;100.00
29315;BME280;16320;53.954;9.506;2022-12-16T01:33:39;100900.19;;;-0.87;100.00
29315;BME280;16320;53.954;9.506;2022-12-16T01:36:43;100913.91;;;-0.86;100.00
29315;BME280;16320;53.954;9.506;2022-12-16T01:39:48;100913.06;;;-0.76;100.00
29315;BME280;16320;53.954;9.506;2022-12-16T01:42:52;100910.50;;;-0.87;100.00
29315;BME280;16320;53.954;9.506;2022-12-16T01:46:17;100918.22;;;-0.85;100.00
29315;BME280;16320;53.954;9.506;2022-12-16T01:49:37;100922.53;;;-0.89;100.00
29315;BME280;16320;53.954;9.506;2022-12-16T01:52:50;100921.69;;;-0.93;100.00
29315;BME280;16320;53.954;9.506;2022-12-16T01:55:57;100926.81;;;-0.89;100.00
29315;BME280;16320;53.954;9.506;2022-12-16T01:59:03;100931.13;;;-0.79;100.00
29315;BME280;16320;53.954;9.506;2022-12-16T02:02:08;100926.81;;;-0.83;100.00
29315;BME280;16320;53.954;9.506;2022-12-16T02:05:15;100925.97;;;-0.78;100.00
29315;BME280;16320;53.954;9.506;2022-12-16T02:08:26;100920.81;;;-0.81;100.00
29315;BME280;16320;53.954;9.506;2022-12-16T02:15:50;100913.06;;;-0.98;100.00
29315;BME280;16320;53.954;9.506;2022-12-16T02:19:23;100912.22;;;-0.98;100.00
29315;BME280;16320;53.954;9.506;2022-12-16T02:23:36;100911.38;;;-0.99;100.00
29315;BME280;16320;53.954;9.506;2022-12-16T02:30:07;100921.66;;;-0.89;100.00
29315;BME280;16320;53.954;9.506;2022-12-16T02:37:12;100917.38;;;-0.86;100.00
29315;BME280;16320;53.954;9.506;2022-12-16T02:40:44;100925.13;;;-0.87;100.00
29315;BME280;16320;53.954;9.506;2022-12-16T02:44:03;100925.97;;;-0.81;100.00
29315;BME280;16320;53.954;9.506;2022-12-16T02:47:09;100925.13;;;-0.89;100.00
29315;BME280;16320;53.954;9.506;2022-12-16T02:50:32;100929.41;;;-0.88;100.00
29315;BME280;16320;53.954;9.506;2022-12-16T02:53:39;100927.69;;;-0.89;100.00
29315;BME280;16320;53.954;9.506;2022-12-16T03:00:24;100921.69;;;-1.05;100.00
29315;BME280;16320;53.954;9.506;2022-12-16T03:03:39;100914.84;;;-1.15;100.00
29315;BME280;16320;53.954;9.506;2022-12-16T03:06:49;100924.25;;;-1.16;100.00
29315;BME280;16320;53.954;9.506;2022-12-16T03:09:56;100912.25;;;-1.17;100.00
29315;BME280;16320;53.954;9.506;2022-12-16T03:13:04;100920.00;;;-1.14;100.00
29315;BME280;16320;53.954;9.506;2022-12-16T03:16:11;100919.09;;;-1.20;100.00
29315;BME280;16320;53.954;9.506;2022-12-16T03:19:18;100915.66;;;-1.19;100.00
29315;BME280;16320;53.954;9.506;2022-12-16T03:22:27;100926.84;;;-1.17;100.00
29315;BME280;16320;53.954;9.506;2022-12-16T03:25:36;100932.88;;;-1.12;100.00
29315;BME280;16320;53.954;9.506;2022-12-16T03:28:51;100939.72;;;-1.14;100.00
29315;BME280;16320;53.954;9.506;2022-12-16T03:32:02;100942.31;;;-1.17;100.00
29315;BME280;16320;53.954;9.506;2022-12-16T03:35:39;100952.59;;;-1.19;100.00
29315;BME280;16320;53.954;9.506;2022-12-16T03:38:46;100956.06;;;-1.27;100.00
29315;BME280;16320;53.954;9.506;2022-12-16T03:41:52;100952.63;;;-1.26;100.00
29315;BME280;16320;53.954;9.506;2022-12-16T03:44:58;100959.47;;;-1.25;100.00
29315;BME280;16320;53.954;9.506;2022-12-16T03:48:07;100961.22;;;-1.26;100.00
29315;BME280;16320;53.954;9.506;2022-12-16T03:51:11;100963.78;;;-1.29;100.00
29315;BME280;16320;53.954;9.506;2022-12-16T03:54:16;100966.38;;;-1.21;100.00
29315;BME280;16320;53.954;9.506;2022-12-16T03:57:22;100972.38;;;-1.19;100.00
29315;BME280;16320;53.954;9.506;2022-12-16T04:00:28;100967.22;;;-1.29;100.00
29315;BME280;16320;53.954;9.506;2022-12-16T04:03:33;100975.81;;;-1.20;100.00
29315;BME280;16320;53.954;9.506;2022-12-16T04:06:38;100974.09;;;-1.24;100.00
29315;BME280;16320;53.954;9.506;2022-12-16T04:09:42;100973.25;;;-1.23;100.00
29315;BME280;16320;53.954;9.506;2022-12-16T04:12:47;100975.81;;;-1.13;100.00
29315;BME280;16320;53.954;9.506;2022-12-16T04:16:14;100976.69;;;-1.21;100.00
29315;BME280;16320;53.954;9.506;2022-12-16T04:19:38;100983.53;;;-1.17;100.00
29315;BME280;16320;53.954;9.506;2022-12-16T04:23:03;100992.16;;;-1.12;100.00
29315;BME280;16320;53.954;9.506;2022-12-16T04:26:26;100996.41;;;-1.20;100.00
29315;BME280;16320;53.954;9.506;2022-12-16T04:29:31;101000.72;;;-1.22;100.00
29315;BME280;16320;53.954;9.506;2022-12-16T04:32:36;101011.91;;;-1.26;100.00
29315;BME280;16320;53.954;9.506;2022-12-16T04:36:00;101012.75;;;-1.24;100.00
29315;BME280;16320;53.954;9.506;2022-12-16T04:39:23;101011.91;;;-1.23;100.00
29315;BME280;16320;53.954;9.506;2022-12-16T04:42:46;101024.81;;;-1.23;100.00
29315;BME280;16320;53.954;9.506;2022-12-16T04:46:09;101020.50;;;-1.18;100.00
29315;BME280;16320;53.954;9.506;2022-12-16T04:49:32;101026.50;;;-1.25;100.00
29315;BME280;16320;53.954;9.506;2022-12-16T04:52:55;101031.66;;;-1.25;100.00
29315;BME280;16320;53.954;9.506;2022-12-16T04:56:18;101030.81;;;-1.23;100.00
29315;BME280;16320;53.954;9.506;2022-12-16T04:59:41;101038.56;;;-1.18;100.00
29315;BME280;16320;53.954;9.506;2022-12-16T05:03:05;101035.09;;;-1.17;100.00
29315;BME280;16320;53.954;9.506;2022-12-16T05:06:28;101036.84;;;-1.13;100.00
29315;BME280;16320;53.954;9.506;2022-12-16T05:09:51;101044.56;;;-1.16;100.00
29315;BME280;16320;53.954;9.506;2022-12-16T05:13:14;101042.84;;;-1.14;100.00
29315;BME280;16320;53.954;9.506;2022-12-16T05:16:38;101041.97;;;-1.16;100.00
29315;BME280;16320;53.954;9.506;2022-12-16T05:20:01;101041.97;;;-1.19;100.00
29315;BME280;16320;53.954;9.506;2022-12-16T05:23:24;101056.59;;;-1.14;100.00
29315;BME280;16320;53.954;9.506;2022-12-16T05:26:47;101061.75;;;-1.18;100.00
29315;BME280;16320;53.954;9.506;2022-12-16T05:30:11;101055.72;;;-1.23;100.00
29315;BME280;16320;53.954;9.506;2022-12-16T05:33:37;101065.19;;;-1.12;100.00
29315;BME280;16320;53.954;9.506;2022-12-16T05:36:59;101072.91;;;-1.16;100.00
29315;BME280;16320;53.954;9.506;2022-12-16T05:40:22;101078.09;;;-1.12;100.00
29315;BME280;16320;53.954;9.506;2022-12-16T05:43:45;101078.94;;;-1.13;100.00
29315;BME280;16320;53.954;9.506;2022-12-16T05:47:09;101093.56;;;-1.10;100.00
29315;BME280;16320;53.954;9.506;2022-12-16T05:50:32;101087.53;;;-1.09;100.00
29315;BME280;16320;53.954;9.506;2022-12-16T05:53:55;101086.66;;;-1.14;100.00
29315;BME280;16320;53.954;9.506;2022-12-16T05:57:18;101078.13;;;-1.02;100.00
29315;BME280;16320;53.954;9.506;2022-12-16T06:00:41;101084.94;;;-1.09;100.00
29315;BME280;16320;53.954;9.506;2022-12-16T06:04:04;101086.66;;;-1.11;100.00
29315;BME280;16320;53.954;9.506;2022-12-16T06:07:27;101090.13;;;-1.15;100.00
29315;BME280;16320;53.954;9.506;2022-12-16T06:10:50;101093.56;;;-1.13;100.00
29315;BME280;16320;53.954;9.506;2022-12-16T06:14:16;101101.31;;;-1.08;100.00
29315;BME280;16320;53.954;9.506;2022-12-16T06:17:47;101102.13;;;-1.13;100.00
29315;BME280;16320;53.954;9.506;2022-12-16T06:21:11;101109.88;;;-1.11;100.00
29315;BME280;16320;53.954;9.506;2022-12-16T06:24:33;101116.75;;;-1.10;100.00
29315;BME280;16320;53.954;9.506;2022-12-16T06:27:56;101121.91;;;-1.10;100.00
29315;BME280;16320;53.954;9.506;2022-12-16T06:31:19;101122.75;;;-1.14;100.00
29315;BME280;16320;53.954;9.506;2022-12-16T06:34:42;101130.50;;;-1.09;100.00
29315;BME280;16320;53.954;9.506;2022-12-16T06:38:04;101125.34;;;-1.11;100.00
29315;BME280;16320;53.954;9.506;2022-12-16T06:41:30;101125.38;;;-1.05;100.00
29315;BME280;16320;53.954;9.506;2022-12-16T06:45:03;101127.97;;;-1.02;100.00
29315;BME280;16320;53.954;9.506;2022-12-16T06:48:38;101125.38;;;-1.02;100.00
29315;BME280;16320;53.954;9.506;2022-12-16T06:52:09;101134.81;;;-1.10;100.00
29315;BME280;16320;53.954;9.506;2022-12-16T06:55:32;101133.09;;;-1.08;100.00
29315;BME280;16320;53.954;9.506;2022-12-16T06:58:56;101137.34;;;-1.16;100.00
29315;BME280;16320;53.954;9.506;2022-12-16T07:02:20;101139.94;;;-1.16;100.00
29315;BME280;16320;53.954;9.506;2022-12-16T07:05:45;101146.81;;;-1.21;100.00
29315;BME280;16320;53.954;9.506;2022-12-16T07:09:09;101157.09;;;-1.21;100.00
29315;BME280;16320;53.954;9.506;2022-12-16T07:12:32;101156.25;;;-1.19;100.00
29315;BME280;16320;53.954;9.506;2022-12-16T07:15:55;101163.97;;;-1.20;100.00
29315;BME280;16320;53.954;9.506;2022-12-16T07:19:19;101170.88;;;-1.13;100.00
29315;BME280;16320;53.954;9.506;2022-12-16T07:22:45;101179.44;;;-1.23;100.00
29315;BME280;16320;53.954;9.506;2022-12-16T07:26:21;101183.72;;;-1.32;100.00
29315;BME280;16320;53.954;9.506;2022-12-16T07:29:44;101191.44;;;-1.32;100.00
29315;BME280;16320;53.954;9.506;2022-12-16T07:33:06;101196.59;;;-1.29;100.00
29315;BME280;16320;53.954;9.506;2022-12-16T07:36:31;101205.16;;;-1.33;100.00
29315;BME280;16320;53.954;9.506;2022-12-16T07:39:54;101220.59;;;-1.39;100.00
29315;BME280;16320;53.954;9.506;2022-12-16T07:43:17;101231.81;;;-1.31;100.00
29315;BME280;16320;53.954;9.506;2022-12-16T07:46:41;101233.59;;;-1.22;100.00
29315;BME280;16320;53.954;9.506;2022-12-16T07:50:04;101237.91;;;-1.16;100.00
29315;BME280;16320;53.954;9.506;2022-12-16T07:53:28;101239.63;;;-1.15;100.00
29315;BME280;16320;53.954;9.506;2022-12-16T07:56:51;101237.06;;;-1.12;100.00
29315;BME280;16320;53.954;9.506;2022-12-16T08:00:15;101243.97;;;-1.05;100.00
29315;BME280;16320;53.954;9.506;2022-12-16T08:03:39;101239.66;;;-1.07;100.00
29315;BME280;16320;53.954;9.506;2022-12-16T08:07:02;101244.84;;;-1.00;100.00
29315;BME280;16320;53.954;9.506;2022-12-16T08:10:25;101256.03;;;-0.95;100.00
29315;BME280;16320;53.954;9.506;2022-12-16T08:13:48;101259.44;;;-1.03;100.00
29315;BME280;16320;53.954;9.506;2022-12-16T08:17:12;101259.50;;;-0.96;100.00
29315;BME280;16320;53.954;9.506;2022-12-16T08:20:35;101267.22;;;-0.89;100.00
29315;BME280;16320;53.954;9.506;2022-12-16T08:23:59;101279.31;;;-0.82;100.00
29315;BME280;16320;53.954;9.506;2022-12-16T08:27:22;101284.50;;;-0.79;100.00
29315;BME280;16320;53.954;9.506;2022-12-16T08:30:50;101286.25;;;-0.67;100.00
29315;BME280;16320;53.954;9.506;2022-12-16T08:34:12;101299.16;;;-0.64;100.00
29315;BME280;16320;53.954;9.506;2022-12-16T08:37:35;101306.03;;;-0.60;100.00
29315;BME280;16320;53.954;9.506;2022-12-16T08:40:58;101307.81;;;-0.53;100.00
29315;BME280;16320;53.954;9.506;2022-12-16T08:44:21;101318.16;;;-0.45;100.00
29315;BME280;16320;53.954;9.506;2022-12-16T08:47:45;101325.94;;;-0.30;100.00
29315;BME280;16320;53.954;9.506;2022-12-16T08:51:08;101330.28;;;-0.23;100.00
29315;BME280;16320;53.954;9.506;2022-12-16T08:54:31;101332.00;;;-0.19;100.00
29315;BME280;16320;53.954;9.506;2022-12-16T08:57:55;101340.59;;;-0.20;100.00
29315;BME280;16320;53.954;9.506;2022-12-16T09:01:18;101341.47;;;-0.14;100.00
29315;BME280;16320;53.954;9.506;2022-12-16T09:04:42;101345.78;;;-0.12;100.00
29315;BME280;16320;53.954;9.506;2022-12-16T09:08:06;101342.38;;;-0.02;100.00
29315;BME280;16320;53.954;9.506;2022-12-16T09:11:32;101341.47;;;-0.08;100.00
29315;BME280;16320;53.954;9.506;2022-12-16T09:14:56;101343.19;;;-0.15;100.00
29315;BME280;16320;53.954;9.506;2022-12-16T09:18:20;101342.38;;;-0.03;100.00
29315;BME280;16320;53.954;9.506;2022-12-16T09:21:46;101350.97;;;-0.03;100.00
29315;BME280;16320;53.954;9.506;2022-12-16T09:25:38;101352.69;;;0.09;100.00
29315;BME280;16320;53.954;9.506;2022-12-16T09:29:05;101348.41;;;0.14;100.00
29315;BME280;16320;53.954;9.506;2022-12-16T09:32:31;101351.88;;;0.13;100.00
29315;BME280;16320;53.954;9.506;2022-12-16T09:36:01;101353.59;;;0.10;100.00
29315;BME280;16320;53.954;9.506;2022-12-16T09:39:36;101358.75;;;0.19;100.00
29315;BME280;16320;53.954;9.506;2022-12-16T09:51:26;101369.09;;;0.24;100.00
29315;BME280;16320;53.954;9.506;2022-12-16T09:55:44;101365.63;;;0.15;100.00
29315;BME280;16320;53.954;9.506;2022-12-16T10:00:27;101374.25;;;0.17;100.00
29315;BME280;16320;53.954;9.506;2022-12-16T10:04:15;101371.66;;;0.10;100.00
29315;BME280;16320;53.954;9.506;2022-12-16T10:08:56;101370.78;;;0.06;100.00
29315;BME280;16320;53.954;9.506;2022-12-16T10:17:38;101374.22;;;0.14;100.00
29315;BME280;16320;53.954;9.506;2022-12-16T10:21:31;101379.41;;;0.14;100.00
29315;BME280;16320;53.954;9.506;2022-12-16T10:33:39;101394.91;;;0.14;100.00
29315;BME280;16320;53.954;9.506;2022-12-16T10:37:53;101394.06;;;0.18;100.00
29315;BME280;16320;53.954;9.506;2022-12-16T10:41:54;101392.31;;;0.13;100.00
29315;BME280;16320;53.954;9.506;2022-12-16T10:51:04;101394.03;;;0.11;100.00
29315;BME280;16320;53.954;9.506;2022-12-16T11:06:50;101389.72;;;0.11;100.00
29315;BME280;16320;53.954;9.506;2022-12-16T11:11:06;101400.06;;;0.04;100.00
29315;BME280;16320;53.954;9.506;2022-12-16T11:14:52;101400.91;;;0.06;100.00
29315;BME280;16320;53.954;9.506;2022-12-16T11:18:56;101402.63;;;-0.06;100.00
29315;BME280;16320;53.954;9.506;2022-12-16T11:22:36;101411.22;;;0.01;100.00
29315;BME280;16320;53.954;9.506;2022-12-16T11:26:40;101406.03;;;-0.05;100.00
29315;BME280;16320;53.954;9.506;2022-12-16T11:39:51;101419.03;;;0.16;100.00
29315;BME280;16320;53.954;9.506;2022-12-16T11:44:04;101419.03;;;0.23;100.00
29315;BME280;16320;53.954;9.506;2022-12-16T11:47:57;101420.78;;;0.30;100.00
29315;BME280;16320;53.954;9.506;2022-12-16T11:51:59;101427.69;;;0.28;100.00
29315;BME280;16320;53.954;9.506;2022-12-16T11:55:26;101426.78;;;0.24;100.00
29315;BME280;16320;53.954;9.506;2022-12-16T11:58:54;101419.88;;;0.15;100.00
29315;BME280;16320;53.954;9.506;2022-12-16T12:06:40;101425.94;;;0.27;100.00
29315;BME280;16320;53.954;9.506;2022-12-16T12:15:06;101432.84;;;0.28;100.00
29315;BME280;16320;53.954;9.506;2022-12-16T12:38:11;101429.41;;;0.35;100.00
29315;BME280;16320;53.954;9.506;2022-12-16T13:30:16;101466.44;;;0.28;100.00
29315;BME280;16320;53.954;9.506;2022-12-16T13:46:39;101480.19;;;0.21;100.00
29315;BME280;16320;53.954;9.506;2022-12-16T13:51:55;101484.50;;;0.22;100.00
29315;BME280;16320;53.954;9.506;2022-12-16T14:00:43;101483.63;;;0.16;100.00
29315;BME280;16320;53.954;9.506;2022-12-16T14:05:07;101487.91;;;0.08;100.00
29315;BME280;16320;53.954;9.506;2022-12-16T14:09:11;101487.91;;;0.05;100.00
29315;BME280;16320;53.954;9.506;2022-12-16T14:17:45;101486.91;;;-0.20;100.00
29315;BME280;16320;53.954;9.506;2022-12-16T14:22:22;101496.41;;;-0.14;100.00
29315;BME280;16320;53.954;9.506;2022-12-16T14:26:30;101501.53;;;-0.21;100.00
29315;BME280;16320;53.954;9.506;2022-12-16T14:30:00;101508.44;;;-0.23;100.00
29315;BME280;16320;53.954;9.506;2022-12-16T14:33:29;101510.09;;;-0.28;100.00
29315;BME280;16320;53.954;9.506;2022-12-16T14:36:55;101520.41;;;-0.28;100.00
29315;BME280;16320;53.954;9.506;2022-12-16T14:40:41;101523.84;;;-0.32;100.00
29315;BME280;16320;53.954;9.506;2022-12-16T14:44:24;101540.22;;;-0.27;100.00
29315;BME280;16320;53.954;9.506;2022-12-16T14:48:00;101535.94;;;-0.25;100.00
29315;BME280;16320;53.954;9.506;2022-12-16T14:51:48;101541.03;;;-0.39;100.00
29315;BME280;16320;53.954;9.506;2022-12-16T14:55:24;101545.31;;;-0.42;100.00
29315;BME280;16320;53.954;9.506;2022-12-16T14:59:18;101554.69;;;-0.50;100.00
29315;BME280;16320;53.954;9.506;2022-12-16T15:02:51;101554.59;;;-0.64;100.00
29315;BME280;16320;53.954;9.506;2022-12-16T15:06:40;101570.19;;;-0.49;100.00
29315;BME280;16320;53.954;9.506;2022-12-16T15:10:20;101571.91;;;-0.49;100.00
29315;BME280;16320;53.954;9.506;2022-12-16T15:13:55;101575.34;;;-0.47;100.00
29315;BME280;16320;53.954;9.506;2022-12-16T15:17:54;101577.97;;;-0.44;100.00
29315;BME280;16320;53.954;9.506;2022-12-16T15:21:28;101584.03;;;-0.42;100.00
29315;BME280;16320;53.954;9.506;2022-12-16T15:25:03;101580.44;;;-0.60;100.00
29315;BME280;16320;53.954;9.506;2022-12-16T15:31:59;101595.00;;;-0.68;100.00
29315;BME280;16320;53.954;9.506;2022-12-16T15:35:59;101609.69;;;-0.59;100.00
29315;BME280;16320;53.954;9.506;2022-12-16T15:39:45;101607.97;;;-0.62;100.00
29315;BME280;16320;53.954;9.506;2022-12-16T15:43:29;101617.38;;;-0.65;100.00
29315;BME280;16320;53.954;9.506;2022-12-16T15:46:56;101613.03;;;-0.71;100.00
29315;BME280;16320;53.954;9.506;2022-12-16T15:50:25;101613.91;;;-0.67;100.00
29315;BME280;16320;53.954;9.506;2022-12-16T15:54:02;101614.72;;;-0.70;100.00
29315;BME280;16320;53.954;9.506;2022-12-16T15:57:34;101628.47;;;-0.74;100.00
29315;BME280;16320;53.954;9.506;2022-12-16T16:00:59;101631.84;;;-0.78;100.00
29315;BME280;16320;53.954;9.506;2022-12-16T16:04:28;101633.50;;;-0.86;100.00
29315;BME280;16320;53.954;9.506;2022-12-16T16:07:52;101643.81;;;-0.86;100.00
29315;BME280;16320;53.954;9.506;2022-12-16T16:11:26;101641.41;;;-0.71;100.00
29315;BME280;16320;53.954;9.506;2022-12-16T16:14:49;101650.94;;;-0.61;100.00
29315;BME280;16320;53.954;9.506;2022-12-16T16:18:39;101645.00;;;-0.55;100.00
29315;BME280;16320;53.954;9.506;2022-12-16T16:22:25;101650.97;;;-0.59;100.00
29315;BME280;16320;53.954;9.506;2022-12-16T16:25:58;101648.41;;;-0.58;100.00
29315;BME280;16320;53.954;9.506;2022-12-16T16:29:25;101650.09;;;-0.63;100.00
29315;BME280;16320;53.954;9.506;2022-12-16T16:32:52;101656.81;;;-0.77;100.00
29315;BME280;16320;53.954;9.506;2022-12-16T16:37:06;101663.69;;;-0.79;100.00
29315;BME280;16320;53.954;9.506;2022-12-16T16:41:06;101679.31;;;-0.62;100.00
29315;BME280;16320;53.954;9.506;2022-12-16T16:44:49;101677.59;;;-0.65;100.00
29315;BME280;16320;53.954;9.506;2022-12-16T16:48:23;101681.78;;;-0.76;100.00
29315;BME280;16320;53.954;9.506;2022-12-16T16:51:59;101688.69;;;-0.72;100.00
29315;BME280;16320;53.954;9.506;2022-12-16T16:55:58;101680.13;;;-0.69;100.00
29315;BME280;16320;53.954;9.506;2022-12-16T16:59:39;101675.06;;;-0.62;100.00
29315;BME280;16320;53.954;9.506;2022-12-16T17:03:53;101676.72;;;-0.64;100.00
29315;BME280;16320;53.954;9.506;2022-12-16T17:07:50;101685.34;;;-0.65;100.00
29315;BME280;16320;53.954;9.506;2022-12-16T17:16:18;101694.75;;;-0.67;100.00
29315;BME280;16320;53.954;9.506;2022-12-16T17:20:02;101693.13;;;-0.62;100.00
29315;BME280;16320;53.954;9.506;2022-12-16T17:23:37;101690.53;;;-0.62;100.00
29315;BME280;16320;53.954;9.506;2022-12-16T17:31:40;101697.25;;;-0.78;100.00
29315;BME280;16320;53.954;9.506;2022-12-16T17:35:15;101698.13;;;-0.76;100.00
29315;BME280;16320;53.954;9.506;2022-12-16T17:38:42;101707.63;;;-0.73;100.00
29315;BME280;16320;53.954;9.506;2022-12-16T17:42:05;101705.81;;;-0.80;100.00
29315;BME280;16320;53.954;9.506;2022-12-16T17:45:28;101699.78;;;-0.81;100.00
29315;BME280;16320;53.954;9.506;2022-12-16T17:48:54;101705.75;;;-0.83;100.00
29315;BME280;16320;53.954;9.506;2022-12-16T17:52:24;101711.88;;;-0.75;100.00
29315;BME280;16320;53.954;9.506;2022-12-16T17:56:11;101707.56;;;-0.76;100.00
29315;BME280;16320;53.954;9.506;2022-12-16T17:59:39;101716.16;;;-0.77;100.00
29315;BME280;16320;53.954;9.506;2022-12-16T18:03:13;101717.88;;;-0.79;100.00
29315;BME280;16320;53.954;9.506;2022-12-16T18:06:39;101711.81;;;-0.81;100.00
29315;BME280;16320;53.954;9.506;2022-12-16T18:10:18;101721.19;;;-0.86;100.00
29315;BME280;16320;53.954;9.506;2022-12-16T18:13:54;101731.56;;;-0.82;100.00
29315;BME280;16320;53.954;9.506;2022-12-16T18:17:25;101734.09;;;-0.88;100.00
29315;BME280;16320;53.954;9.506;2022-12-16T18:20:55;101744.47;;;-0.82;100.00
29315;BME280;16320;53.954;9.506;2022-12-16T18:24:23;101747.03;;;-0.83;100.00
29315;BME280;16320;53.954;9.506;2022-12-16T18:28:12;101740.81;;;-1.02;100.00
29315;BME280;16320;53.954;9.506;2022-12-16T18:31:36;101743.25;;;-1.13;100.00
29315;BME280;16320;53.954;9.506;2022-12-16T18:49:11;101764.50;;;-1.86;100.00
29315;BME280;16320;53.954;9.506;2022-12-16T18:52:56;101758.34;;;-1.96;100.00
29315;BME280;16320;53.954;9.506;2022-12-16T18:56:19;101768.28;;;-1.66;100.00
29315;BME280;16320;53.954;9.506;2022-12-16T19:00:03;101773.28;;;-1.75;100.00
29315;BME280;16320;53.954;9.506;2022-12-16T19:03:27;101766.25;;;-1.85;100.00
29315;BME280;16320;53.954;9.506;2022-12-16T19:07:15;101769.88;;;-1.74;100.00
29315;BME280;16320;53.954;9.506;2022-12-16T19:10:46;101777.78;;;-1.61;100.00
29315;BME280;16320;53.954;9.506;2022-12-16T19:14:18;101770.84;;;-1.67;100.00
29315;BME280;16320;53.954;9.506;2022-12-16T19:17:42;101782.69;;;-1.78;100.00
29315;BME280;16320;53.954;9.506;2022-12-16T19:21:08;101786.38;;;-1.62;100.00
29315;BME280;16320;53.954;9.506;2022-12-16T19:24:32;101793.50;;;-1.46;100.00
29315;BME280;16320;53.954;9.506;2022-12-16T19:27:55;101794.41;;;-1.41;100.00
29315;BME280;16320;53.954;9.506;2022-12-16T19:31:18;101792.53;;;-1.51;100.00
29315;BME280;16320;53.954;9.506;2022-12-16T19:34:43;101801.06;;;-1.55;100.00
29315;BME280;16320;53.954;9.506;2022-12-16T19:38:12;101802.72;;;-1.60;100.00
29315;BME280;16320;53.954;9.506;2022-12-16T19:41:35;101809.75;;;-1.49;100.00
29315;BME280;16320;53.954;9.506;2022-12-16T19:44:59;101809.03;;;-1.38;100.00
29315;BME280;16320;53.954;9.506;2022-12-16T19:48:36;101813.38;;;-1.36;100.00
29315;BME280;16320;53.954;9.506;2022-12-16T19:52:00;101813.50;;;-1.30;100.00
29315;BME280;16320;53.954;9.506;2022-12-16T19:55:24;101821.09;;;-1.37;100.00
29315;BME280;16320;53.954;9.506;2022-12-16T19:58:47;101810.63;;;-1.47;100.00
29315;BME280;16320;53.954;9.506;2022-12-16T20:02:14;101813.25;;;-1.45;100.00
29315;BME280;16320;53.954;9.506;2022-12-16T20:05:40;101810.75;;;-1.39;100.00
29315;BME280;16320;53.954;9.506;2022-12-16T20:09:20;101811.72;;;-1.32;100.00
29315;BME280;16320;53.954;9.506;2022-12-16T20:12:44;101820.25;;;-1.38;100.00
29315;BME280;16320;53.954;9.506;2022-12-16T20:16:11;101815.78;;;-1.47;100.00
29315;BME280;16320;53.954;9.506;2022-12-16T20:19:34;101814.06;;;-1.48;100.00
29315;BME280;16320;53.954;9.506;2022-12-16T20:22:59;101821.84;;;-1.46;100.00
29315;BME280;16320;53.954;9.506;2022-12-16T20:26:21;101817.59;;;-1.42;100.00
29315;BME280;16320;53.954;9.506;2022-12-16T20:29:44;101827.09;;;-1.37;100.00
29315;BME280;16320;53.954;9.506;2022-12-16T20:33:13;101828.59;;;-1.53;100.00
29315;BME280;16320;53.954;9.506;2022-12-16T20:36:36;101840.31;;;-1.72;100.00
29315;BME280;16320;53.954;9.506;2022-12-16T20:40:10;101830.72;;;-1.79;100.00
29315;BME280;16320;53.954;9.506;2022-12-16T20:43:41;101845.28;;;-1.81;100.00
29315;BME280;16320;53.954;9.506;2022-12-16T20:47:04;101839.09;;;-1.92;100.00
29315;BME280;16320;53.954;9.506;2022-12-16T20:50:29;101840.84;;;-1.91;100.00
29315;BME280;16320;53.954;9.506;2022-12-16T20:53:53;101843.22;;;-2.00;100.00
29315;BME280;16320;53.954;9.506;2022-12-16T20:57:21;101849.28;;;-2.43;100.00
29315;BME280;16320;53.954;9.506;2022-12-16T21:00:53;101858.00;;;-2.79;100.00